Terminal Aerodrome Forecast
Issued by NWS Detroit/Pontiac, MI

Home | Current Version | Previous Version | Text Only | Print | Product List | Glossary On
Versions: 1 2 3 4 5 6 7 8 9 10 11 12 13 14 15 16 17 18 19 20 21 22 23 24 25 26 27 28 29 30
682
FTUS43 KDTX 231120
TAFDTW
TAF
KDTW 231120Z 2312/2418 21010KT P6SM -SHRA OVC014
     FM231300 22013KT 5SM -SHRA BKN012 OVC022
      TEMPO 2314/2316 2SM TSRA BKN010CB
     FM231600 25012KT P6SM SCT025 BKN100
     FM231900 28012KT P6SM BKN035
     FM240100 28006KT P6SM BKN120=

USA.gov is the U.S. government's official web portal to all federal, state and local government web resources and services.